No particular awareness of the weather is required.    There are no Weather-warnings


Meteo18 Weather Cam more information Meteo18 Weather Cam


Thunder radar more information blitzortung!


Rain radar more information rain snow radar


Visit our other weather sites:

Template documentation
and downloads

And another site



Weather Underground History page Text

Daily Summary for January 18, 2017 Units:  English    Metric   Both
« Previous Day
Next Day »
Daily Weekly Monthly Yearly Custom
  High: Low: Average:
Temperature: 31.3 °F 22.6 °F 26.1 °F
Dew Point: 23.9 °F 18.5 °F 20.7 °F
Humidity: 85 % 71 % 80 %
Wind Speed: 21 mph 0 mph 6.7 mph
Wind Gust: 26 mph - -
Wind:- - East
Pressure: 30.4 in 30.4 in -
Precipitation: 0 in    
Historical Graphs
 
 
Tabular Data for January 18, 2017
Time Temperature Dew Point Pressure Wind Wind Speed Wind Gust Humidity Rainfall Rate (Hourly)
00:02 25.3 °F 19.8 °F 30.4 in NE 15 mph 21 mph 79 % 0 in
00:12 25.3 °F 19.8 °F 30.4 in NNE 16 mph 21 mph 79 % 0 in
00:17 25.3 °F 19.8 °F 30.4 in NNE 13 mph 21 mph 79 % 0 in
00:22 25.2 °F 19.6 °F 30.4 in NE 11 mph 21 mph 79 % 0 in
00:27 25.2 °F 19.6 °F 30.4 in NNE 6 mph 21 mph 79 % 0 in
00:32 25.2 °F 19.9 °F 30.4 in NNE 7 mph 19 mph 80 % 0 in
00:37 25 °F 19.8 °F 30.4 in NNW 6 mph 19 mph 80 % 0 in
00:42 25 °F 19.8 °F 30.4 in NNE 8 mph 19 mph 80 % 0 in
00:47 25 °F 19.8 °F 30.4 in NE 8 mph 18 mph 80 % 0 in
00:52 24.8 °F 19.6 °F 30.4 in ENE 10 mph 17 mph 80 % 0 in
00:57 24.8 °F 19.6 °F 30.4 in NNE 6 mph 15 mph 80 % 0 in
01:02 25 °F 19.8 °F 30.4 in NNE 11 mph 15 mph 80 % 0 in
01:07 24.6 °F 19.4 °F 30.4 in NNW 3 mph 18 mph 80 % 0 in
01:12 24.6 °F 19.6 °F 30.4 in NNE 7 mph 18 mph 81 % 0 in
01:17 24.6 °F 19.6 °F 30.4 in NNE 6 mph 16 mph 81 % 0 in
01:22 24.6 °F 19.6 °F 30.4 in NNE 5 mph 16 mph 81 % 0 in
01:27 24.4 °F 19.4 °F 30.4 in North 4 mph 17 mph 81 % 0 in
01:32 24.4 °F 19.4 °F 30.4 in NNE 12 mph 17 mph 81 % 0 in
01:37 24.4 °F 19.4 °F 30.4 in North 8 mph 17 mph 81 % 0 in
01:42 24.4 °F 19.4 °F 30.4 in WNW 3 mph 17 mph 81 % 0 in
01:47 24.3 °F 19.2 °F 30.4 in NE 4 mph 15 mph 81 % 0 in
01:52 24.4 °F 19.4 °F 30.4 in NNE 7 mph 16 mph 81 % 0 in
01:57 24.4 °F 19.4 °F 30.4 in NNW 5 mph 17 mph 81 % 0 in
02:02 24.3 °F 19.2 °F 30.4 in NE 11 mph 17 mph 81 % 0 in
02:07 24.1 °F 19.4 °F 30.4 in NE 15 mph 17 mph 82 % 0 in
02:12 24.3 °F 19.6 °F 30.4 in NE 7 mph 16 mph 82 % 0 in
02:17 24.3 °F 19.6 °F 30.4 in NE 1 mph 16 mph 82 % 0 in
02:22 24.3 °F 19.6 °F 30.4 in NNE 6 mph 16 mph 82 % 0 in
02:27 24.1 °F 19.4 °F 30.4 in NE 9 mph 16 mph 82 % 0 in
02:32 24.1 °F 19.4 °F 30.4 in North 6 mph 16 mph 82 % 0 in
02:37 24.1 °F 19.4 °F 30.4 in NNE 6 mph 13 mph 82 % 0 in
02:42 24.1 °F 19.4 °F 30.4 in NNE 8 mph 15 mph 82 % 0 in
02:47 24.1 °F 19.4 °F 30.4 in North 2 mph 16 mph 82 % 0 in
02:52 24.1 °F 19.4 °F 30.4 in NNE 4 mph 16 mph 82 % 0 in
02:57 24.1 °F 19.4 °F 30.4 in NNE 6 mph 16 mph 82 % 0 in
03:02 24.1 °F 19.4 °F 30.4 in North 5 mph 15 mph 82 % 0 in
03:12 24.1 °F 19.4 °F 30.4 in NNW 2 mph 15 mph 82 % 0 in
03:17 23.9 °F 19.2 °F 30.4 in NNE 7 mph 15 mph 82 % 0 in
03:22 23.9 °F 19.2 °F 30.4 in NE 2 mph 15 mph 82 % 0 in
03:32 23.7 °F 19.4 °F 30.4 in NNW 2 mph 16 mph 83 % 0 in
03:37 23.7 °F 19.4 °F 30.4 in NNE 11 mph 21 mph 83 % 0 in
03:42 23.7 °F 19.4 °F 30.4 in NE 1 mph 21 mph 83 % 0 in
03:52 23.7 °F 19.4 °F 30.4 in NNE 5 mph 18 mph 83 % 0 in
03:57 23.7 °F 19.4 °F 30.4 in North 8 mph 15 mph 83 % 0 in
04:02 23.7 °F 19.4 °F 30.4 in NNE 5 mph 15 mph 83 % 0 in
04:12 23.5 °F 19.2 °F 30.4 in North 2 mph 13 mph 83 % 0 in
04:17 23.5 °F 19.4 °F 30.4 in North 2 mph 10 mph 84 % 0 in
04:22 23.5 °F 19.4 °F 30.4 in NE 5 mph 14 mph 84 % 0 in
04:27 23.4 °F 19.2 °F 30.4 in NNE 4 mph 15 mph 84 % 0 in
04:32 23.4 °F 19.2 °F 30.4 in North 3 mph 15 mph 84 % 0 in
04:37 23.2 °F 19 °F 30.4 in North 5 mph 15 mph 84 % 0 in
04:42 23.2 °F 19 °F 30.4 in NNE 10 mph 12 mph 84 % 0 in
04:47 23.2 °F 19 °F 30.4 in WNW 3 mph 14 mph 84 % 0 in
04:52 23.4 °F 19.2 °F 30.4 in NNW 6 mph 14 mph 84 % 0 in
05:02 23.2 °F 19 °F 30.4 in NE 7 mph 16 mph 84 % 0 in
05:12 23.4 °F 19.2 °F 30.4 in NNE 8 mph 15 mph 84 % 0 in
05:17 23.2 °F 19 °F 30.4 in NW 4 mph 14 mph 84 % 0 in
05:22 23.2 °F 19 °F 30.4 in NNE 6 mph 14 mph 84 % 0 in
05:27 23.2 °F 19 °F 30.4 in NNE 8 mph 17 mph 84 % 0 in
05:32 23.2 °F 19 °F 30.4 in NNE 5 mph 17 mph 84 % 0 in
05:37 23.2 °F 19.4 °F 30.4 in NW 3 mph 16 mph 85 % 0 in
05:42 23.2 °F 19.4 °F 30.4 in NNW 3 mph 16 mph 85 % 0 in
05:47 23 °F 19.2 °F 30.4 in NNE 3 mph 16 mph 85 % 0 in
05:52 23 °F 19.2 °F 30.4 in NNE 3 mph 16 mph 85 % 0 in
05:57 22.8 °F 19 °F 30.4 in North 5 mph 16 mph 85 % 0 in
06:02 22.8 °F 19 °F 30.4 in NNW 3 mph 16 mph 85 % 0 in
06:07 22.8 °F 19 °F 30.4 in NNE 5 mph 12 mph 85 % 0 in
06:12 22.8 °F 19 °F 30.4 in NE 2 mph 12 mph 85 % 0 in
06:17 22.8 °F 19 °F 30.4 in North 3 mph 12 mph 85 % 0 in
06:27 22.8 °F 19 °F 30.4 in NE 5 mph 11 mph 85 % 0 in
06:32 22.8 °F 19 °F 30.4 in North 5 mph 11 mph 85 % 0 in
06:37 22.6 °F 18.9 °F 30.4 in North 1 mph 10 mph 85 % 0 in
06:42 22.8 °F 19 °F 30.4 in NNW 1 mph 10 mph 85 % 0 in
06:52 22.6 °F 18.9 °F 30.4 in North 2 mph 11 mph 85 % 0 in
06:57 22.6 °F 18.9 °F 30.4 in North 2 mph 11 mph 85 % 0 in
07:02 22.8 °F 19 °F 30.4 in Calm   11 mph 85 % 0 in
07:07 22.6 °F 18.9 °F 30.4 in North 11 mph 13 mph 85 % 0 in
07:12 22.8 °F 19 °F 30.4 in NNE 11 mph 13 mph 85 % 0 in
07:17 22.6 °F 18.9 °F 30.4 in NNW 1 mph 14 mph 85 % 0 in
07:22 22.6 °F 18.9 °F 30.4 in NE 7 mph 14 mph 85 % 0 in
07:27 22.6 °F 18.9 °F 30.4 in NNW 1 mph 13 mph 85 % 0 in
07:32 22.6 °F 18.9 °F 30.4 in NNE 2 mph 13 mph 85 % 0 in
07:37 22.8 °F 19 °F 30.4 in ENE 1 mph 13 mph 85 % 0 in
07:42 22.6 °F 18.9 °F 30.4 in NE 2 mph 13 mph 85 % 0 in
07:52 22.6 °F 18.9 °F 30.4 in NE 13 mph 13 mph 85 % 0 in
07:57 22.8 °F 19 °F 30.4 in NNE 3 mph 12 mph 85 % 0 in
08:02 22.8 °F 19 °F 30.4 in North 7 mph 12 mph 85 % 0 in
08:12 22.8 °F 18.7 °F 30.4 in NNW 2 mph 15 mph 84 % 0 in
08:17 22.6 °F 18.5 °F 30.4 in NNW 1 mph 13 mph 84 % 0 in
08:22 22.8 °F 19 °F 30.4 in North 2 mph 13 mph 85 % 0 in
08:32 22.8 °F 18.7 °F 30.4 in NE 1 mph 13 mph 84 % 0 in
08:37 22.8 °F 18.7 °F 30.4 in NE 12 mph 15 mph 84 % 0 in
08:42 22.8 °F 18.7 °F 30.4 in NW 3 mph 15 mph 84 % 0 in
08:47 22.8 °F 18.7 °F 30.4 in North 5 mph 13 mph 84 % 0 in
08:52 22.8 °F 18.7 °F 30.4 in NNE 5 mph 13 mph 84 % 0 in
08:57 23 °F 18.9 °F 30.4 in NNE 6 mph 14 mph 84 % 0 in
09:02 23.2 °F 19 °F 30.4 in NNW 6 mph 14 mph 84 % 0 in
09:12 23.4 °F 19.2 °F 30.4 in NNW 2 mph 15 mph 84 % 0 in
09:17 23.5 °F 19.2 °F 30.4 in NE 7 mph 16 mph 83 % 0 in
09:22 23.7 °F 19.4 °F 30.4 in NNE 10 mph 16 mph 83 % 0 in
09:27 23.7 °F 19.4 °F 30.4 in NE 6 mph 16 mph 83 % 0 in
09:32 23.9 °F 19.2 °F 30.4 in NE 5 mph 16 mph 82 % 0 in
09:37 24.1 °F 19.8 °F 30.4 in ENE 9 mph 16 mph 83 % 0 in
09:42 24.3 °F 19.6 °F 30.4 in NE 10 mph 16 mph 82 % 0 in
09:47 24.3 °F 19.6 °F 30.4 in NE 7 mph 18 mph 82 % 0 in
09:52 24.4 °F 19.8 °F 30.4 in NE 6 mph 18 mph 82 % 0 in
09:57 24.6 °F 19.6 °F 30.4 in North 1 mph 18 mph 81 % 0 in
10:02 24.6 °F 19.6 °F 30.4 in NNE 17 mph 18 mph 81 % 0 in
10:12 25 °F 19.9 °F 30.4 in East 3 mph 18 mph 81 % 0 in
10:17 25 °F 19.9 °F 30.4 in NE 11 mph 18 mph 81 % 0 in
10:22 25 °F 19.9 °F 30.4 in NE 7 mph 18 mph 81 % 0 in
10:32 25.3 °F 20.3 °F 30.4 in NE 10 mph 20 mph 81 % 0 in
10:37 25.3 °F 20.1 °F 30.4 in ENE 17 mph 21 mph 80 % 0 in
10:42 25.5 °F 20.5 °F 30.4 in NE 14 mph 21 mph 81 % 0 in
10:47 25.5 °F 20.3 °F 30.4 in NE 13 mph 22 mph 80 % 0 in
10:52 25.9 °F 20.8 °F 30.4 in NNE 11 mph 22 mph 81 % 0 in
11:02 25.9 °F 20.5 °F 30.4 in NNE 17 mph 24 mph 80 % 0 in
11:07 26.1 °F 20.7 °F 30.4 in NNE 8 mph 24 mph 80 % 0 in
11:12 26.2 °F 21.2 °F 30.4 in NE 13 mph 24 mph 81 % 0 in
11:17 26.2 °F 20.7 °F 30.4 in NE 20 mph 22 mph 79 % 0 in
11:22 26.2 °F 20.7 °F 30.4 in NNE 21 mph 24 mph 79 % 0 in
11:32 26.2 °F 20.8 °F 30.4 in NE 15 mph 26 mph 80 % 0 in
11:37 26.2 °F 20.8 °F 30.4 in NNE 14 mph 26 mph 80 % 0 in
11:42 26.2 °F 20.7 °F 30.4 in NE 10 mph 24 mph 79 % 0 in
11:47 26.4 °F 21 °F 30.4 in ENE 6 mph 19 mph 80 % 0 in
11:52 26.4 °F 20.8 °F 30.4 in NE 10 mph 19 mph 79 % 0 in
11:57 26.8 °F 21.2 °F 30.4 in NE 14 mph 18 mph 79 % 0 in
12:02 27 °F 21.4 °F 30.4 in NNE 14 mph 17 mph 79 % 0 in
12:07 27 °F 21.4 °F 30.4 in NE 15 mph 17 mph 79 % 0 in
12:12 27 °F 21 °F 30.4 in North 15 mph 17 mph 78 % 0 in
12:17 27.1 °F 21.2 °F 30.4 in NE 8 mph 17 mph 78 % 0 in
12:22 27.1 °F 21.2 °F 30.4 in ENE 11 mph 18 mph 78 % 0 in
12:27 27.1 °F 21.6 °F 30.4 in NNE 14 mph 18 mph 79 % 0 in
12:32 27.3 °F 21.7 °F 30.4 in NE 8 mph 18 mph 79 % 0 in
12:37 27.3 °F 21.7 °F 30.4 in North 12 mph 18 mph 79 % 0 in
12:47 27.3 °F 21.7 °F 30.4 in NNE 4 mph 18 mph 79 % 0 in
12:52 27.7 °F 21.7 °F 30.4 in NE 11 mph 18 mph 78 % 0 in
12:57 28 °F 22.1 °F 30.4 in NNE 14 mph 20 mph 78 % 0 in
13:02 28 °F 21.7 °F 30.4 in NNE 8 mph 20 mph 77 % 0 in
13:07 28 °F 21.4 °F 30.4 in North 6 mph 17 mph 76 % 0 in
13:12 28.2 °F 21.9 °F 30.4 in ENE 2 mph 16 mph 77 % 0 in
13:17 28.6 °F 22.3 °F 30.4 in NNE 11 mph 16 mph 77 % 0 in
13:22 29.1 °F 23.2 °F 30.4 in NNE 11 mph 15 mph 78 % 0 in
13:32 29.1 °F 22.3 °F 30.4 in ENE 12 mph 17 mph 75 % 0 in
13:37 28.9 °F 22.1 °F 30.4 in NE 17 mph 18 mph 75 % 0 in
13:42 28.8 °F 22.1 °F 30.4 in ENE 7 mph 24 mph 76 % 0 in
13:47 28.8 °F 22.1 °F 30.4 in North 14 mph 24 mph 76 % 0 in
13:52 28.8 °F 21.9 °F 30.4 in NNE 14 mph 24 mph 75 % 0 in
13:57 29.1 °F 22.8 °F 30.4 in NNE 12 mph 22 mph 77 % 0 in
14:02 29.3 °F 23 °F 30.4 in ENE 11 mph 20 mph 77 % 0 in
14:07 29.5 °F 22.5 °F 30.4 in ENE 6 mph 19 mph 75 % 0 in
14:12 29.7 °F 23 °F 30.4 in NE 10 mph 19 mph 76 % 0 in
14:17 30 °F 23 °F 30.4 in NE 10 mph 19 mph 75 % 0 in
14:22 30.4 °F 23.4 °F 30.4 in NNE 6 mph 13 mph 75 % 0 in
14:32 30.4 °F 23.4 °F 30.4 in NNE 8 mph 20 mph 75 % 0 in
14:37 30.2 °F 23 °F 30.4 in East 7 mph 20 mph 74 % 0 in
14:42 30.2 °F 23.2 °F 30.4 in NE 7 mph 18 mph 75 % 0 in
14:47 30.2 °F 23.2 °F 30.4 in ENE 9 mph 18 mph 75 % 0 in
14:52 30 °F 22.8 °F 30.4 in NE 10 mph 18 mph 74 % 0 in
14:57 30 °F 22.8 °F 30.4 in NNE 7 mph 18 mph 74 % 0 in
15:02 30.6 °F 23.5 °F 30.4 in NE 9 mph 18 mph 75 % 0 in
15:12 30.9 °F 23.9 °F 30.4 in NNE 7 mph 20 mph 75 % 0 in
15:17 30.9 °F 23.4 °F 30.4 in NE 8 mph 20 mph 73 % 0 in
15:22 30.9 °F 23.4 °F 30.4 in NE 4 mph 20 mph 73 % 0 in
15:27 30.9 °F 23.5 °F 30.4 in ENE 11 mph 20 mph 74 % 0 in
15:32 30.9 °F 23.5 °F 30.4 in NNE 9 mph 21 mph 74 % 0 in
15:37 31.1 °F 23.5 °F 30.4 in NNE 12 mph 21 mph 73 % 0 in
15:42 31.3 °F 23.4 °F 30.4 in ENE 13 mph 21 mph 72 % 0 in
15:47 31.3 °F 23 °F 30.4 in NE 12 mph 20 mph 71 % 0 in
15:52 31.3 °F 23.7 °F 30.4 in NNE 15 mph 19 mph 73 % 0 in
15:57 31.3 °F 23 °F 30.4 in NE 11 mph 21 mph 71 % 0 in
16:02 31.3 °F 23.4 °F 30.4 in NE 7 mph 21 mph 72 % 0 in
16:07 31.3 °F 23 °F 30.4 in NE 10 mph 21 mph 71 % 0 in
16:12 31.3 °F 23.4 °F 30.4 in NNE 8 mph 20 mph 72 % 0 in
16:17 31.3 °F 23 °F 30.4 in NE 11 mph 20 mph 71 % 0 in
16:32 31.3 °F 23.4 °F 30.4 in NE 5 mph 19 mph 72 % 0 in
16:37 31.3 °F 23.4 °F 30.4 in NNE 10 mph 19 mph 72 % 0 in
16:42 31.3 °F 23.4 °F 30.4 in NE 10 mph 19 mph 72 % 0 in
16:47 31.3 °F 23.4 °F 30.4 in NNE 10 mph 18 mph 72 % 0 in
16:52 31.3 °F 23.4 °F 30.4 in NE 10 mph 20 mph 72 % 0 in
17:02 31.1 °F 23.2 °F 30.4 in NE 13 mph 20 mph 72 % 0 in
17:12 30.7 °F 22.8 °F 30.4 in NE 6 mph 18 mph 72 % 0 in
17:17 30.6 °F 22.6 °F 30.4 in NE 10 mph 18 mph 72 % 0 in
17:32 30.4 °F 22.5 °F 30.4 in NNE 12 mph 16 mph 72 % 0 in
17:37 30.2 °F 22.3 °F 30.4 in NNE 7 mph 16 mph 72 % 0 in
17:42 30 °F 22.5 °F 30.4 in NE 10 mph 14 mph 73 % 0 in
17:47 30 °F 22.5 °F 30.4 in NE 7 mph 14 mph 73 % 0 in
17:52 29.8 °F 22.3 °F 30.4 in North 6 mph 14 mph 73 % 0 in
17:57 29.8 °F 22.3 °F 30.4 in NNE 7 mph 18 mph 73 % 0 in
18:02 29.8 °F 21.9 °F 30.4 in NE 11 mph 18 mph 72 % 0 in
18:07 29.8 °F 22.3 °F 30.4 in NE 9 mph 18 mph 73 % 0 in
18:12 29.7 °F 22.1 °F 30.4 in NNE 7 mph 17 mph 73 % 0 in
18:17 29.5 °F 22.3 °F 30.4 in NE 6 mph 17 mph 74 % 0 in
18:22 29.5 °F 21.9 °F 30.4 in NNE 8 mph 16 mph 73 % 0 in
18:27 29.5 °F 22.3 °F 30.4 in NNE 4 mph 16 mph 74 % 0 in
18:32 29.3 °F 22.1 °F 30.4 in NE 5 mph 13 mph 74 % 0 in
18:37 29.1 °F 21.9 °F 30.4 in NNE 6 mph 13 mph 74 % 0 in
18:42 29.1 °F 21.9 °F 30.4 in North 10 mph 13 mph 74 % 0 in
18:47 28.9 °F 22.1 °F 30.4 in NE 7 mph 12 mph 75 % 0 in
18:52 28.9 °F 22.1 °F 30.4 in NE 3 mph 12 mph 75 % 0 in
18:57 28.9 °F 22.1 °F 30.4 in NNE 3 mph 12 mph 75 % 0 in
19:02 28.9 °F 22.1 °F 30.4 in NE 6 mph 15 mph 75 % 0 in
19:07 28.8 °F 21.9 °F 30.4 in NE 5 mph 15 mph 75 % 0 in
19:12 28.6 °F 21.7 °F 30.4 in North 6 mph 15 mph 75 % 0 in
19:17 28.6 °F 21.7 °F 30.4 in NNE 8 mph 11 mph 75 % 0 in
19:22 28.6 °F 21.7 °F 30.4 in NNE 6 mph 12 mph 75 % 0 in
19:32 28.4 °F 21.7 °F 30.4 in ENE 2 mph 14 mph 76 % 0 in
19:37 28.2 °F 21.6 °F 30.4 in North 5 mph 12 mph 76 % 0 in
19:42 28.2 °F 21.6 °F 30.4 in NE 8 mph 11 mph 76 % 0 in
19:47 28 °F 21.4 °F 30.4 in North 6 mph 12 mph 76 % 0 in
19:52 27.9 °F 21.6 °F 30.4 in NE 7 mph 12 mph 77 % 0 in
19:57 27.9 °F 21.6 °F 30.4 in NNW 4 mph 12 mph 77 % 0 in
20:02 27.9 °F 21.6 °F 30.4 in NNE 8 mph 11 mph 77 % 0 in
20:12 27.7 °F 21.4 °F 30.4 in NNE 4 mph 12 mph 77 % 0 in
20:17 27.7 °F 21.4 °F 30.4 in NNE 3 mph 12 mph 77 % 0 in
20:22 27.5 °F 21.2 °F 30.4 in NE 9 mph 12 mph 77 % 0 in
20:27 27.5 °F 21.2 °F 30.4 in NNE 4 mph 12 mph 77 % 0 in
20:32 27.5 °F 21.2 °F 30.4 in NE 6 mph 12 mph 77 % 0 in
20:37 27.3 °F 21 °F 30.4 in North 6 mph 10 mph 77 % 0 in
20:42 27.3 °F 21.4 °F 30.4 in NNE 3 mph 10 mph 78 % 0 in
20:52 27 °F 21 °F 30.4 in NNE 7 mph 10 mph 78 % 0 in
20:57 26.8 °F 20.8 °F 30.4 in NNE 1 mph 8 mph 78 % 0 in
21:02 26.6 °F 21 °F 30.4 in NE 4 mph 8 mph 79 % 0 in
21:07 26.4 °F 20.8 °F 30.4 in North 3 mph 8 mph 79 % 0 in
21:12 26.6 °F 21 °F 30.4 in NE 7 mph 10 mph 79 % 0 in
21:17 26.4 °F 20.8 °F 30.4 in NNE 5 mph 10 mph 79 % 0 in
21:22 26.4 °F 20.8 °F 30.4 in NNE 2 mph 10 mph 79 % 0 in
21:27 26.4 °F 20.8 °F 30.4 in East 1 mph 9 mph 79 % 0 in
21:32 26.4 °F 20.8 °F 30.4 in NNW 3 mph 9 mph 79 % 0 in
21:37 26.4 °F 20.8 °F 30.4 in WNW 2 mph 9 mph 79 % 0 in
21:42 26.4 °F 20.8 °F 30.4 in Calm   14 mph 79 % 0 in
21:47 26.2 °F 20.7 °F 30.4 in NNE 8 mph 14 mph 79 % 0 in
21:52 26.2 °F 20.7 °F 30.4 in Calm   10 mph 79 % 0 in
21:57 26.1 °F 20.5 °F 30.4 in NNE 2 mph 10 mph 79 % 0 in
22:02 25.9 °F 20.5 °F 30.4 in Calm   10 mph 80 % 0 in
22:12 25.9 °F 20.5 °F 30.4 in NNE 1 mph 9 mph 80 % 0 in
22:17 25.7 °F 20.5 °F 30.4 in Calm   9 mph 80 % 0 in
22:27 25.3 °F 20.1 °F 30.4 in Calm   6 mph 80 % 0 in
22:32 25.2 °F 20.1 °F 30.4 in Calm   5 mph 81 % 0 in
22:37 25.2 °F 20.1 °F 30.4 in NE 1 mph 5 mph 81 % 0 in
22:42 25 °F 19.9 °F 30.4 in Calm   5 mph 81 % 0 in
22:47 24.8 °F 20.1 °F 30.4 in North 1 mph 5 mph 82 % 0 in
22:52 24.4 °F 19.8 °F 30.4 in NNE 1 mph 4 mph 82 % 0 in
23:02 24.3 °F 19.6 °F 30.4 in NNE 1 mph 4 mph 82 % 0 in
23:12 24.3 °F 19.8 °F 30.4 in Calm   3 mph 83 % 0 in
23:17 24.3 °F 19.8 °F 30.4 in North 2 mph 5 mph 83 % 0 in
23:22 24.3 °F 19.6 °F 30.4 in NNE 2 mph 5 mph 82 % 0 in
23:32 24.1 °F 19.8 °F 30.4 in NNW 2 mph 5 mph 83 % 0 in
23:37 23.9 °F 19.6 °F 30.4 in NNW 4 mph 6 mph 83 % 0 in
23:42 23.7 °F 19.4 °F 30.4 in Calm   6 mph 83 % 0 in
23:47 23.7 °F 19.4 °F 30.4 in North 1 mph 6 mph 83 % 0 in
23:52 23.9 °F 19.6 °F 30.4 in NE 5 mph 10 mph 83 % 0 in
23:57 23.9 °F 19.6 °F 30.4 in NNW 2 mph 10 mph 83 % 0 in
Meteo18
Compliments of Weather Underground - 4 mb

Script developed by  Jim McMurry - jmcmurry@mwt.net Adapted for the template by  Wim van der Kuil - Leuven-Template.eu

You find our weather info also at:

European Weather Network

Weather Underground

Equipment we use:

Weather-station
Davis Vue

Weather-program
Meteohub

Weather-server
Raspberry PI 2 B+

Provider
1 and 1

Davis Vue

Meteohub

Raspberry PI 2 B+

1 and 1